sensor_id;sensor_type;location;lat;lon;timestamp;pressure;altitude;pressure_sealevel;temperature;humidity
55576;BME280;41437;45.478;9.116;2023-03-04T00:00:40;99999.28;;;7.47;100.00
55576;BME280;41437;45.478;9.116;2023-03-04T00:03:44;99998.56;;;7.52;100.00
55576;BME280;41437;45.478;9.116;2023-03-04T00:06:46;100001.22;;;7.59;100.00
55576;BME280;41437;45.478;9.116;2023-03-04T00:09:47;100003.47;;;7.62;100.00
55576;BME280;41437;45.478;9.116;2023-03-04T00:12:50;99999.16;;;7.66;100.00
55576;BME280;41437;45.478;9.116;2023-03-04T00:15:52;99995.38;;;7.67;100.00
55576;BME280;41437;45.478;9.116;2023-03-04T00:18:54;100005.28;;;7.79;100.00
55576;BME280;41437;45.478;9.116;2023-03-04T00:21:55;99998.56;;;7.87;100.00
55576;BME280;41437;45.478;9.116;2023-03-04T00:24:57;100001.22;;;7.94;100.00
55576;BME280;41437;45.478;9.116;2023-03-04T00:28:00;99999.41;;;7.99;100.00
55576;BME280;41437;45.478;9.116;2023-03-04T00:31:01;99993.34;;;7.97;100.00
55576;BME280;41437;45.478;9.116;2023-03-04T00:34:03;99997.03;;;7.91;100.00
55576;BME280;41437;45.478;9.116;2023-03-04T00:37:04;99996.19;;;7.79;100.00
55576;BME280;41437;45.478;9.116;2023-03-04T00:40:07;99996.09;;;7.86;100.00
55576;BME280;41437;45.478;9.116;2023-03-04T00:43:11;99998.69;;;7.92;100.00
55576;BME280;41437;45.478;9.116;2023-03-04T00:46:12;99994.75;;;8.00;100.00
55576;BME280;41437;45.478;9.116;2023-03-04T00:49:14;99992.13;;;8.05;100.00
55576;BME280;41437;45.478;9.116;2023-03-04T00:52:16;99985.56;;;8.06;100.00
55576;BME280;41437;45.478;9.116;2023-03-04T00:55:17;99988.91;;;7.96;100.00
55576;BME280;41437;45.478;9.116;2023-03-04T00:58:20;99988.31;;;7.82;100.00
55576;BME280;41437;45.478;9.116;2023-03-04T01:01:22;99990.63;;;7.62;100.00
55576;BME280;41437;45.478;9.116;2023-03-04T01:04:23;99988.91;;;7.38;100.00
55576;BME280;41437;45.478;9.116;2023-03-04T01:07:25;99988.06;;;7.37;100.00
55576;BME280;41437;45.478;9.116;2023-03-04T01:10:26;99983.53;;;7.43;100.00
55576;BME280;41437;45.478;9.116;2023-03-04T01:13:29;99981.75;;;7.48;100.00
55576;BME280;41437;45.478;9.116;2023-03-04T01:16:31;99974.25;;;7.44;100.00
55576;BME280;41437;45.478;9.116;2023-03-04T01:19:33;99977.38;;;7.59;100.00
55576;BME280;41437;45.478;9.116;2023-03-04T01:22:34;99978.19;;;7.60;100.00
55576;BME280;41437;45.478;9.116;2023-03-04T01:25:36;99985.97;;;7.63;100.00
55576;BME280;41437;45.478;9.116;2023-03-04T01:28:39;99974.25;;;7.44;100.00
55576;BME280;41437;45.478;9.116;2023-03-04T01:31:40;99973.06;;;7.28;100.00
55576;BME280;41437;45.478;9.116;2023-03-04T01:34:42;99960.66;;;7.25;100.00
55576;BME280;41437;45.478;9.116;2023-03-04T01:37:43;99969.22;;;7.29;100.00
55576;BME280;41437;45.478;9.116;2023-03-04T01:40:45;99971.00;;;7.35;100.00
55576;BME280;41437;45.478;9.116;2023-03-04T01:43:49;99974.03;;;7.45;100.00
55576;BME280;41437;45.478;9.116;2023-03-04T01:46:52;99975.22;;;7.49;100.00
55576;BME280;41437;45.478;9.116;2023-03-04T01:49:56;99969.50;;;7.51;100.00
55576;BME280;41437;45.478;9.116;2023-03-04T01:52:58;99970.19;;;7.35;100.00
55576;BME280;41437;45.478;9.116;2023-03-04T01:56:01;99960.63;;;7.02;100.00
55576;BME280;41437;45.478;9.116;2023-03-04T01:59:12;99958.00;;;7.07;100.00
55576;BME280;41437;45.478;9.116;2023-03-04T02:02:15;99954.44;;;7.07;100.00
55576;BME280;41437;45.478;9.116;2023-03-04T02:05:16;99958.69;;;7.02;100.00
55576;BME280;41437;45.478;9.116;2023-03-04T02:08:20;99956.00;;;6.72;100.00
55576;BME280;41437;45.478;9.116;2023-03-04T02:11:24;99960.66;;;6.72;100.00
55576;BME280;41437;45.478;9.116;2023-03-04T02:14:27;99948.38;;;6.74;100.00
55576;BME280;41437;45.478;9.116;2023-03-04T02:17:31;99946.84;;;6.78;100.00
55576;BME280;41437;45.478;9.116;2023-03-04T02:20:42;99950.66;;;6.77;100.00
55576;BME280;41437;45.478;9.116;2023-03-04T02:23:50;99944.81;;;6.74;100.00
55576;BME280;41437;45.478;9.116;2023-03-04T02:26:57;99950.59;;;6.66;100.00
55576;BME280;41437;45.478;9.116;2023-03-04T02:29:59;99943.91;;;6.62;100.00
55576;BME280;41437;45.478;9.116;2023-03-04T02:33:03;99941.66;;;6.59;100.00
55576;BME280;41437;45.478;9.116;2023-03-04T02:36:05;99936.91;;;6.66;100.00
55576;BME280;41437;45.478;9.116;2023-03-04T02:39:11;99933.00;;;6.73;100.00
55576;BME280;41437;45.478;9.116;2023-03-04T02:42:15;99937.91;;;6.83;100.00
55576;BME280;41437;45.478;9.116;2023-03-04T02:45:30;99943.19;;;6.85;100.00
55576;BME280;41437;45.478;9.116;2023-03-04T02:48:33;99937.69;;;6.85;100.00
55576;BME280;41437;45.478;9.116;2023-03-04T02:51:34;99936.88;;;6.84;100.00
55576;BME280;41437;45.478;9.116;2023-03-04T02:54:38;99941.28;;;6.85;100.00
55576;BME280;41437;45.478;9.116;2023-03-04T02:57:41;99942.69;;;6.88;100.00
55576;BME280;41437;45.478;9.116;2023-03-04T03:00:42;99937.69;;;6.85;100.00
55576;BME280;41437;45.478;9.116;2023-03-04T03:03:44;99942.94;;;6.86;100.00
55576;BME280;41437;45.478;9.116;2023-03-04T03:06:45;99937.69;;;6.85;100.00
55576;BME280;41437;45.478;9.116;2023-03-04T03:09:47;99946.13;;;6.83;100.00
55576;BME280;41437;45.478;9.116;2023-03-04T03:12:50;99937.09;;;6.83;100.00
55576;BME280;41437;45.478;9.116;2023-03-04T03:15:51;99933.16;;;6.78;100.00
55576;BME280;41437;45.478;9.116;2023-03-04T03:18:53;99935.44;;;6.82;100.00
55576;BME280;41437;45.478;9.116;2023-03-04T03:21:54;99923.63;;;6.81;100.00
55576;BME280;41437;45.478;9.116;2023-03-04T03:24:56;99925.53;;;6.80;100.00
55576;BME280;41437;45.478;9.116;2023-03-04T03:27:59;99925.19;;;6.77;100.00
55576;BME280;41437;45.478;9.116;2023-03-04T03:31:03;99921.84;;;6.75;100.00
55576;BME280;41437;45.478;9.116;2023-03-04T03:34:08;99924.34;;;6.76;100.00
55576;BME280;41437;45.478;9.116;2023-03-04T03:37:09;99920.97;;;6.74;100.00
55576;BME280;41437;45.478;9.116;2023-03-04T03:40:12;99923.97;;;6.73;100.00
55576;BME280;41437;45.478;9.116;2023-03-04T03:43:15;99923.59;;;6.69;100.00
55576;BME280;41437;45.478;9.116;2023-03-04T03:46:16;99922.88;;;6.62;100.00
55576;BME280;41437;45.478;9.116;2023-03-04T03:49:18;99915.72;;;6.61;100.00
55576;BME280;41437;45.478;9.116;2023-03-04T03:52:19;99915.38;;;6.58;100.00
55576;BME280;41437;45.478;9.116;2023-03-04T03:55:21;99913.31;;;6.53;100.00
55576;BME280;41437;45.478;9.116;2023-03-04T03:58:24;99912.94;;;6.49;100.00
55576;BME280;41437;45.478;9.116;2023-03-04T04:01:26;99905.53;;;6.38;100.00
55576;BME280;41437;45.478;9.116;2023-03-04T04:04:30;99910.53;;;6.41;100.00
55576;BME280;41437;45.478;9.116;2023-03-04T04:07:32;99911.00;;;6.38;100.00
55576;BME280;41437;45.478;9.116;2023-03-04T04:10:33;99909.78;;;6.34;100.00
55576;BME280;41437;45.478;9.116;2023-03-04T04:13:37;99897.63;;;6.30;100.00
55576;BME280;41437;45.478;9.116;2023-03-04T04:16:38;99904.75;;;6.31;100.00
55576;BME280;41437;45.478;9.116;2023-03-04T04:19:40;99904.94;;;6.18;100.00
55576;BME280;41437;45.478;9.116;2023-03-04T04:22:42;99895.38;;;6.09;100.00
55576;BME280;41437;45.478;9.116;2023-03-04T04:25:43;99904.84;;;5.94;100.00
55576;BME280;41437;45.478;9.116;2023-03-04T04:28:46;99903.28;;;5.80;100.00
55576;BME280;41437;45.478;9.116;2023-03-04T04:31:48;99903.31;;;5.62;100.00
55576;BME280;41437;45.478;9.116;2023-03-04T04:34:50;99904.63;;;5.52;100.00
55576;BME280;41437;45.478;9.116;2023-03-04T04:37:51;99902.38;;;5.49;100.00
55576;BME280;41437;45.478;9.116;2023-03-04T04:40:55;99900.31;;;5.45;100.00
55576;BME280;41437;45.478;9.116;2023-03-04T04:43:58;99894.84;;;5.45;100.00
55576;BME280;41437;45.478;9.116;2023-03-04T04:47:00;99901.59;;;5.42;100.00
55576;BME280;41437;45.478;9.116;2023-03-04T04:50:01;99906.22;;;5.42;100.00
55576;BME280;41437;45.478;9.116;2023-03-04T04:53:03;99891.19;;;5.33;100.00
55576;BME280;41437;45.478;9.116;2023-03-04T04:56:09;99899.28;;;5.21;100.00
55576;BME280;41437;45.478;9.116;2023-03-04T04:59:12;99909.88;;;5.11;100.00
55576;BME280;41437;45.478;9.116;2023-03-04T05:02:16;99903.69;;;5.22;100.00
55576;BME280;41437;45.478;9.116;2023-03-04T05:05:18;99907.72;;;5.19;100.00
55576;BME280;41437;45.478;9.116;2023-03-04T05:08:20;99900.66;;;5.30;100.00
55576;BME280;41437;45.478;9.116;2023-03-04T05:11:22;99896.41;;;5.34;100.00
55576;BME280;41437;45.478;9.116;2023-03-04T05:14:25;99903.72;;;5.40;100.00
55576;BME280;41437;45.478;9.116;2023-03-04T05:17:26;99901.75;;;5.47;100.00
55576;BME280;41437;45.478;9.116;2023-03-04T05:20:27;99907.84;;;5.49;100.00
55576;BME280;41437;45.478;9.116;2023-03-04T05:23:31;99912.63;;;5.54;100.00
55576;BME280;41437;45.478;9.116;2023-03-04T05:26:33;99907.53;;;5.58;100.00
55576;BME280;41437;45.478;9.116;2023-03-04T05:29:36;99911.78;;;5.53;100.00
55576;BME280;41437;45.478;9.116;2023-03-04T05:32:37;99898.56;;;5.50;100.00
55576;BME280;41437;45.478;9.116;2023-03-04T05:35:39;99902.69;;;5.60;100.00
55576;BME280;41437;45.478;9.116;2023-03-04T05:38:41;99906.91;;;5.55;100.00
55576;BME280;41437;45.478;9.116;2023-03-04T05:41:43;99904.47;;;5.47;100.00
55576;BME280;41437;45.478;9.116;2023-03-04T05:44:45;99902.28;;;5.38;100.00
55576;BME280;41437;45.478;9.116;2023-03-04T05:47:47;99902.78;;;5.28;100.00
55576;BME280;41437;45.478;9.116;2023-03-04T05:50:52;99898.84;;;5.24;100.00
55576;BME280;41437;45.478;9.116;2023-03-04T05:53:54;99900.31;;;5.01;100.00
55576;BME280;41437;45.478;9.116;2023-03-04T05:56:55;99907.03;;;4.99;100.00
55576;BME280;41437;45.478;9.116;2023-03-04T05:59:58;99907.03;;;4.99;100.00
55576;BME280;41437;45.478;9.116;2023-03-04T06:03:00;99911.66;;;4.98;100.00
55576;BME280;41437;45.478;9.116;2023-03-04T06:06:02;99909.22;;;4.90;100.00
55576;BME280;41437;45.478;9.116;2023-03-04T06:09:03;99919.53;;;4.88;100.00
55576;BME280;41437;45.478;9.116;2023-03-04T06:12:05;99919.06;;;4.91;100.00
55576;BME280;41437;45.478;9.116;2023-03-04T06:15:09;99922.59;;;4.98;100.00
55576;BME280;41437;45.478;9.116;2023-03-04T06:18:11;99927.63;;;5.01;100.00
55576;BME280;41437;45.478;9.116;2023-03-04T06:21:12;99917.44;;;5.09;100.00
55576;BME280;41437;45.478;9.116;2023-03-04T06:24:14;99924.53;;;5.16;100.00
55576;BME280;41437;45.478;9.116;2023-03-04T06:27:16;99936.19;;;5.30;100.00
55576;BME280;41437;45.478;9.116;2023-03-04T06:30:19;99939.97;;;5.29;100.00
55576;BME280;41437;45.478;9.116;2023-03-04T06:33:21;99941.19;;;5.33;100.00
55576;BME280;41437;45.478;9.116;2023-03-04T06:36:23;99940.28;;;5.39;100.00
55576;BME280;41437;45.478;9.116;2023-03-04T06:39:26;99951.22;;;5.39;100.00
55576;BME280;41437;45.478;9.116;2023-03-04T06:42:28;99942.97;;;5.46;100.00
55576;BME280;41437;45.478;9.116;2023-03-04T06:45:31;99950.22;;;5.59;100.00
55576;BME280;41437;45.478;9.116;2023-03-04T06:48:32;99950.50;;;5.69;100.00
55576;BME280;41437;45.478;9.116;2023-03-04T06:51:34;99957.97;;;5.80;100.00
55576;BME280;41437;45.478;9.116;2023-03-04T06:54:35;99963.09;;;5.95;100.00
55576;BME280;41437;45.478;9.116;2023-03-04T06:57:37;99960.44;;;6.07;100.00
55576;BME280;41437;45.478;9.116;2023-03-04T07:00:43;99966.00;;;6.18;100.00
55576;BME280;41437;45.478;9.116;2023-03-04T07:03:45;99959.50;;;6.31;100.00
55576;BME280;41437;45.478;9.116;2023-03-04T07:06:47;99963.63;;;6.40;100.00
55576;BME280;41437;45.478;9.116;2023-03-04T07:09:49;99966.00;;;6.48;100.00
55576;BME280;41437;45.478;9.116;2023-03-04T07:12:50;99971.28;;;6.62;100.00
55576;BME280;41437;45.478;9.116;2023-03-04T07:15:53;99969.22;;;6.75;100.00
55576;BME280;41437;45.478;9.116;2023-03-04T07:18:55;99966.28;;;6.89;100.00
55576;BME280;41437;45.478;9.116;2023-03-04T07:21:56;99976.22;;;7.01;100.00
55576;BME280;41437;45.478;9.116;2023-03-04T07:24:58;99976.00;;;7.15;100.00
55576;BME280;41437;45.478;9.116;2023-03-04T07:27:59;99967.91;;;7.20;100.00
55576;BME280;41437;45.478;9.116;2023-03-04T07:31:18;99975.56;;;7.41;100.00
55576;BME280;41437;45.478;9.116;2023-03-04T07:34:20;99971.88;;;7.47;100.00
55576;BME280;41437;45.478;9.116;2023-03-04T07:37:22;99984.63;;;7.65;100.00
55576;BME280;41437;45.478;9.116;2023-03-04T07:40:24;99981.66;;;7.78;100.00
55576;BME280;41437;45.478;9.116;2023-03-04T07:43:25;99974.50;;;7.89;100.00
55576;BME280;41437;45.478;9.116;2023-03-04T07:46:31;99980.81;;;8.01;100.00
55576;BME280;41437;45.478;9.116;2023-03-04T07:49:32;99977.19;;;8.13;100.00
55576;BME280;41437;45.478;9.116;2023-03-04T07:52:36;99983.13;;;8.33;100.00
55576;BME280;41437;45.478;9.116;2023-03-04T07:55:38;99984.19;;;8.44;100.00
55576;BME280;41437;45.478;9.116;2023-03-04T07:58:40;99978.19;;;8.59;100.00
55576;BME280;41437;45.478;9.116;2023-03-04T08:01:43;99977.56;;;8.68;100.00
55576;BME280;41437;45.478;9.116;2023-03-04T08:04:44;99976.16;;;8.82;100.00
55576;BME280;41437;45.478;9.116;2023-03-04T08:07:46;99977.94;;;8.89;100.00
55576;BME280;41437;45.478;9.116;2023-03-04T08:10:47;99980.19;;;8.92;100.00
55576;BME280;41437;45.478;9.116;2023-03-04T08:13:49;99983.28;;;8.95;98.77
55576;BME280;41437;45.478;9.116;2023-03-04T08:16:54;99977.72;;;9.07;98.40
55576;BME280;41437;45.478;9.116;2023-03-04T08:19:56;99983.06;;;9.30;98.77
55576;BME280;41437;45.478;9.116;2023-03-04T08:22:57;99980.94;;;9.49;94.80
55576;BME280;41437;45.478;9.116;2023-03-04T08:26:05;99976.75;;;9.47;94.75
55576;BME280;41437;45.478;9.116;2023-03-04T08:29:08;99968.56;;;9.52;94.91
55576;BME280;41437;45.478;9.116;2023-03-04T08:32:11;99984.56;;;9.72;93.58
55576;BME280;41437;45.478;9.116;2023-03-04T08:35:13;99980.47;;;9.74;94.88
55576;BME280;41437;45.478;9.116;2023-03-04T08:38:15;99976.28;;;9.89;92.90
55576;BME280;41437;45.478;9.116;2023-03-04T08:41:16;99979.34;;;9.92;92.33
55576;BME280;41437;45.478;9.116;2023-03-04T08:44:18;99974.06;;;10.07;92.93
55576;BME280;41437;45.478;9.116;2023-03-04T08:47:22;99981.41;;;10.19;92.32
55576;BME280;41437;45.478;9.116;2023-03-04T08:50:23;99972.31;;;10.40;91.55
55576;BME280;41437;45.478;9.116;2023-03-04T08:53:27;99969.25;;;10.59;90.89
55576;BME280;41437;45.478;9.116;2023-03-04T08:56:29;99966.34;;;10.70;89.01
55576;BME280;41437;45.478;9.116;2023-03-04T08:59:31;99969.31;;;10.91;84.45
55576;BME280;41437;45.478;9.116;2023-03-04T09:02:33;99971.25;;;10.90;84.01
55576;BME280;41437;45.478;9.116;2023-03-04T09:05:35;99974.31;;;10.94;85.11
55576;BME280;41437;45.478;9.116;2023-03-04T09:08:38;99962.00;;;11.01;83.52
55576;BME280;41437;45.478;9.116;2023-03-04T09:11:40;99965.78;;;11.27;82.22
55576;BME280;41437;45.478;9.116;2023-03-04T09:14:44;99965.19;;;11.52;80.75
55576;BME280;41437;45.478;9.116;2023-03-04T09:17:47;99965.56;;;11.66;79.12
55576;BME280;41437;45.478;9.116;2023-03-04T09:20:49;99967.41;;;11.55;78.61
55576;BME280;41437;45.478;9.116;2023-03-04T09:23:50;99964.66;;;11.55;77.28
55576;BME280;41437;45.478;9.116;2023-03-04T09:26:53;99963.06;;;11.65;76.72
55576;BME280;41437;45.478;9.116;2023-03-04T09:29:54;99963.69;;;11.72;75.63
55576;BME280;41437;45.478;9.116;2023-03-04T09:32:59;99962.56;;;11.73;75.53
55576;BME280;41437;45.478;9.116;2023-03-04T09:36:01;99953.69;;;11.66;75.75
55576;BME280;41437;45.478;9.116;2023-03-04T09:39:03;99962.25;;;11.64;76.19
55576;BME280;41437;45.478;9.116;2023-03-04T09:42:06;99961.88;;;11.88;75.62
55576;BME280;41437;45.478;9.116;2023-03-04T09:45:14;99954.53;;;12.08;73.76
55576;BME280;41437;45.478;9.116;2023-03-04T09:48:20;99951.38;;;12.37;73.67
55576;BME280;41437;45.478;9.116;2023-03-04T09:51:39;99955.75;;;12.28;72.69
55576;BME280;41437;45.478;9.116;2023-03-04T09:54:59;99950.25;;;12.38;71.80
55576;BME280;41437;45.478;9.116;2023-03-04T09:58:06;99958.06;;;12.56;71.79
55576;BME280;41437;45.478;9.116;2023-03-04T10:01:19;99949.31;;;12.90;72.75
55576;BME280;41437;45.478;9.116;2023-03-04T10:04:30;99950.44;;;13.09;68.64
55576;BME280;41437;45.478;9.116;2023-03-04T10:07:37;99944.06;;;12.99;68.41
55576;BME280;41437;45.478;9.116;2023-03-04T10:10:42;99948.50;;;13.05;70.36
55576;BME280;41437;45.478;9.116;2023-03-04T10:17:12;99925.53;;;13.15;71.13
55576;BME280;41437;45.478;9.116;2023-03-04T10:20:19;99925.59;;;13.35;70.31
55576;BME280;41437;45.478;9.116;2023-03-04T10:23:24;99923.91;;;13.60;67.01
55576;BME280;41437;45.478;9.116;2023-03-04T10:26:28;99925.84;;;13.49;68.13
55576;BME280;41437;45.478;9.116;2023-03-04T10:29:32;99914.50;;;13.40;67.53
55576;BME280;41437;45.478;9.116;2023-03-04T10:32:34;99921.72;;;13.46;68.32
55576;BME280;41437;45.478;9.116;2023-03-04T10:35:37;99920.84;;;13.76;66.59
55576;BME280;41437;45.478;9.116;2023-03-04T10:38:40;99922.16;;;14.04;63.51
55576;BME280;41437;45.478;9.116;2023-03-04T10:41:44;99918.25;;;14.16;63.66
55576;BME280;41437;45.478;9.116;2023-03-04T10:44:51;99907.81;;;13.82;64.17
55576;BME280;41437;45.478;9.116;2023-03-04T10:47:54;99901.97;;;13.94;65.19
55576;BME280;41437;45.478;9.116;2023-03-04T10:51:10;99907.50;;;13.99;63.18
55576;BME280;41437;45.478;9.116;2023-03-04T10:54:21;99897.16;;;14.15;64.64
55576;BME280;41437;45.478;9.116;2023-03-04T10:57:31;99901.50;;;14.41;63.46
55576;BME280;41437;45.478;9.116;2023-03-04T11:00:35;99897.59;;;14.52;62.94
55576;BME280;41437;45.478;9.116;2023-03-04T11:03:37;99889.19;;;14.63;61.10
55576;BME280;41437;45.478;9.116;2023-03-04T11:06:48;99877.09;;;14.48;62.40
55576;BME280;41437;45.478;9.116;2023-03-04T11:09:49;99884.28;;;14.44;64.00
55576;BME280;41437;45.478;9.116;2023-03-04T11:12:55;99882.59;;;14.53;62.37
55576;BME280;41437;45.478;9.116;2023-03-04T11:16:01;99876.81;;;14.50;62.40
55576;BME280;41437;45.478;9.116;2023-03-04T11:19:12;99876.78;;;14.55;62.50
55576;BME280;41437;45.478;9.116;2023-03-04T11:22:20;99875.56;;;14.71;60.78
55576;BME280;41437;45.478;9.116;2023-03-04T11:25:25;99869.13;;;14.81;60.17
55576;BME280;41437;45.478;9.116;2023-03-04T11:28:33;99858.75;;;14.52;60.53
55576;BME280;41437;45.478;9.116;2023-03-04T11:31:42;99857.63;;;14.53;62.66
55576;BME280;41437;45.478;9.116;2023-03-04T11:34:49;99851.56;;;14.46;61.44
55576;BME280;41437;45.478;9.116;2023-03-04T11:37:59;99841.00;;;14.53;63.06
55576;BME280;41437;45.478;9.116;2023-03-04T11:41:09;99836.72;;;14.76;61.20
55576;BME280;41437;45.478;9.116;2023-03-04T11:44:13;99832.97;;;14.91;57.38
55576;BME280;41437;45.478;9.116;2023-03-04T11:47:26;99827.06;;;15.03;57.56
55576;BME280;41437;45.478;9.116;2023-03-04T11:50:40;99821.22;;;15.04;59.31
55576;BME280;41437;45.478;9.116;2023-03-04T11:57:18;99810.69;;;15.01;57.81
55576;BME280;41437;45.478;9.116;2023-03-04T12:00:32;99809.81;;;15.35;56.10
55576;BME280;41437;45.478;9.116;2023-03-04T12:03:54;99798.97;;;15.39;56.00
55576;BME280;41437;45.478;9.116;2023-03-04T12:07:08;99808.31;;;15.19;55.24
55576;BME280;41437;45.478;9.116;2023-03-04T12:10:21;99798.97;;;15.09;54.61
55576;BME280;41437;45.478;9.116;2023-03-04T12:13:44;99792.75;;;14.94;54.59
55576;BME280;41437;45.478;9.116;2023-03-04T12:17:03;99778.75;;;15.04;54.53
55576;BME280;41437;45.478;9.116;2023-03-04T12:20:34;99775.50;;;15.26;54.32
55576;BME280;41437;45.478;9.116;2023-03-04T12:24:13;99773.47;;;15.31;54.55
55576;BME280;41437;45.478;9.116;2023-03-04T12:27:27;99768.09;;;15.16;54.95
55576;BME280;41437;45.478;9.116;2023-03-04T12:30:41;99759.66;;;15.26;54.40
55576;BME280;41437;45.478;9.116;2023-03-04T12:33:54;99749.00;;;14.51;54.33
55576;BME280;41437;45.478;9.116;2023-03-04T12:40:34;99734.69;;;15.02;55.13
55576;BME280;41437;45.478;9.116;2023-03-04T12:43:49;99738.63;;;15.44;53.09
55576;BME280;41437;45.478;9.116;2023-03-04T12:47:09;99726.94;;;15.47;52.52
55576;BME280;41437;45.478;9.116;2023-03-04T12:50:35;99716.88;;;15.32;53.36
55576;BME280;41437;45.478;9.116;2023-03-04T12:53:49;99714.94;;;15.28;54.90
55576;BME280;41437;45.478;9.116;2023-03-04T12:56:59;99709.41;;;15.28;51.48
55576;BME280;41437;45.478;9.116;2023-03-04T13:00:15;99692.69;;;15.33;53.20
55576;BME280;41437;45.478;9.116;2023-03-04T13:03:24;99701.44;;;15.21;54.79
55576;BME280;41437;45.478;9.116;2023-03-04T13:06:35;99702.38;;;15.36;55.13
55576;BME280;41437;45.478;9.116;2023-03-04T13:09:46;99692.97;;;15.55;53.79
55576;BME280;41437;45.478;9.116;2023-03-04T13:12:51;99689.66;;;15.77;51.06
55576;BME280;41437;45.478;9.116;2023-03-04T13:16:03;99684.84;;;15.83;52.70
55576;BME280;41437;45.478;9.116;2023-03-04T13:22:44;99679.44;;;15.73;52.93
55576;BME280;41437;45.478;9.116;2023-03-04T13:25:47;99683.50;;;15.99;51.06
55576;BME280;41437;45.478;9.116;2023-03-04T13:32:36;99680.00;;;15.94;50.48
55576;BME280;41437;45.478;9.116;2023-03-04T13:35:48;99676.59;;;16.16;48.87
55576;BME280;41437;45.478;9.116;2023-03-04T13:38:57;99666.72;;;16.23;48.80
55576;BME280;41437;45.478;9.116;2023-03-04T13:42:00;99672.00;;;16.06;49.93
55576;BME280;41437;45.478;9.116;2023-03-04T13:45:03;99665.38;;;16.21;48.91
55576;BME280;41437;45.478;9.116;2023-03-04T13:48:22;99655.72;;;15.99;47.81
55576;BME280;41437;45.478;9.116;2023-03-04T13:51:29;99665.63;;;15.68;49.78
55576;BME280;41437;45.478;9.116;2023-03-04T13:54:32;99661.66;;;15.74;49.71
55576;BME280;41437;45.478;9.116;2023-03-04T13:57:35;99661.13;;;15.91;50.18
55576;BME280;41437;45.478;9.116;2023-03-04T14:00:46;99657.13;;;15.97;49.32
55576;BME280;41437;45.478;9.116;2023-03-04T14:03:51;99644.88;;;16.17;48.39
55576;BME280;41437;45.478;9.116;2023-03-04T14:06:54;99644.88;;;16.17;48.52
55576;BME280;41437;45.478;9.116;2023-03-04T14:09:59;99645.16;;;16.34;47.69
55576;BME280;41437;45.478;9.116;2023-03-04T14:13:04;99650.31;;;15.89;48.06
55576;BME280;41437;45.478;9.116;2023-03-04T14:16:06;99642.28;;;15.88;49.07
55576;BME280;41437;45.478;9.116;2023-03-04T14:19:15;99632.66;;;15.80;49.29
55576;BME280;41437;45.478;9.116;2023-03-04T14:22:23;99632.44;;;15.76;49.15
55576;BME280;41437;45.478;9.116;2023-03-04T14:25:27;99629.69;;;15.76;48.38
55576;BME280;41437;45.478;9.116;2023-03-04T14:28:29;99621.53;;;15.80;48.66
55576;BME280;41437;45.478;9.116;2023-03-04T14:31:33;99628.22;;;15.79;48.66
55576;BME280;41437;45.478;9.116;2023-03-04T14:34:39;99614.78;;;15.86;47.26
55576;BME280;41437;45.478;9.116;2023-03-04T14:37:47;99612.53;;;16.07;47.72
55576;BME280;41437;45.478;9.116;2023-03-04T14:40:53;99603.81;;;16.27;46.71
55576;BME280;41437;45.478;9.116;2023-03-04T14:44:07;99603.44;;;16.01;47.45
55576;BME280;41437;45.478;9.116;2023-03-04T14:47:16;99598.81;;;15.78;48.73
55576;BME280;41437;45.478;9.116;2023-03-04T14:50:21;99586.84;;;15.58;48.75
55576;BME280;41437;45.478;9.116;2023-03-04T14:53:24;99580.03;;;14.84;49.10
55576;BME280;41437;45.478;9.116;2023-03-04T14:56:29;99586.78;;;15.02;48.93
55576;BME280;41437;45.478;9.116;2023-03-04T14:59:35;99579.56;;;15.01;49.22
55576;BME280;41437;45.478;9.116;2023-03-04T15:02:40;99581.59;;;14.95;49.33
55576;BME280;41437;45.478;9.116;2023-03-04T15:05:43;99583.94;;;15.07;50.82
55576;BME280;41437;45.478;9.116;2023-03-04T15:08:52;99575.09;;;15.05;50.44
55576;BME280;41437;45.478;9.116;2023-03-04T15:12:00;99575.91;;;15.05;49.89
55576;BME280;41437;45.478;9.116;2023-03-04T15:15:28;99572.06;;;15.01;51.49
55576;BME280;41437;45.478;9.116;2023-03-04T15:18:28;99564.94;;;14.95;51.22
55576;BME280;41437;45.478;9.116;2023-03-04T15:21:34;99553.38;;;14.88;51.29
55576;BME280;41437;45.478;9.116;2023-03-04T15:24:37;99559.09;;;14.97;49.50
55576;BME280;41437;45.478;9.116;2023-03-04T15:27:39;99559.31;;;15.00;49.94
55576;BME280;41437;45.478;9.116;2023-03-04T15:30:41;99543.59;;;15.15;52.64
55576;BME280;41437;45.478;9.116;2023-03-04T15:33:44;99555.00;;;15.32;50.32
55576;BME280;41437;45.478;9.116;2023-03-04T15:36:50;99554.66;;;15.39;49.65
55576;BME280;41437;45.478;9.116;2023-03-04T15:39:54;99559.66;;;15.18;50.25
55576;BME280;41437;45.478;9.116;2023-03-04T15:42:57;99561.50;;;15.03;50.33
55576;BME280;41437;45.478;9.116;2023-03-04T15:45:59;99553.72;;;15.05;49.68
55576;BME280;41437;45.478;9.116;2023-03-04T15:49:02;99549.25;;;14.86;50.86
55576;BME280;41437;45.478;9.116;2023-03-04T15:52:05;99545.34;;;14.87;51.21
55576;BME280;41437;45.478;9.116;2023-03-04T15:55:11;99545.50;;;14.76;51.27
55576;BME280;41437;45.478;9.116;2023-03-04T15:58:17;99538.75;;;14.82;51.63
55576;BME280;41437;45.478;9.116;2023-03-04T16:01:20;99538.50;;;14.79;52.75
55576;BME280;41437;45.478;9.116;2023-03-04T16:04:23;99537.00;;;14.68;52.31
55576;BME280;41437;45.478;9.116;2023-03-04T16:07:28;99534.97;;;14.73;51.30
55576;BME280;41437;45.478;9.116;2023-03-04T16:10:31;99544.91;;;14.55;51.25
55576;BME280;41437;45.478;9.116;2023-03-04T16:13:33;99544.13;;;14.21;52.24
55576;BME280;41437;45.478;9.116;2023-03-04T16:16:34;99540.25;;;13.88;52.27
55576;BME280;41437;45.478;9.116;2023-03-04T16:19:37;99542.72;;;13.94;53.73
55576;BME280;41437;45.478;9.116;2023-03-04T16:22:40;99532.69;;;13.98;53.19
55576;BME280;41437;45.478;9.116;2023-03-04T16:25:46;99530.94;;;14.07;53.80
55576;BME280;41437;45.478;9.116;2023-03-04T16:28:48;99536.53;;;14.02;53.89
55576;BME280;41437;45.478;9.116;2023-03-04T16:31:52;99531.78;;;13.74;53.60
55576;BME280;41437;45.478;9.116;2023-03-04T16:34:55;99518.03;;;13.64;54.39